KCCB/CCB METAR and TAF weather

Enter ICAO airport designator
Station Type Date Time Source
KCCB METAR 2019/02/23 22:55 UTC NOAA

KCCB 232255Z AUTO 25010KT 10SM CLR 15/M09 A3023 RMK AO2


Station Type Date Time Source
KCCB Decoded METAR 2019/02/23 22:55 UTC NOAA

Station name not available
Feb 23, 2019 - 05:55 PM EST / 2019.02.23 2255 UTC
Wind: from the WSW (250 degrees) at 12 MPH (10 KT):0
Visibility: 10 mile(s):0
Sky conditions: clear
Temperature: 59 F (15 C)
Dew Point: 15 F (-9 C)
Relative Humidity: 18%
Pressure (altimeter): 30.23 in. Hg (1023 hPa)
ob: KCCB 232255Z AUTO 25010KT 10SM CLR 15/M09 A3023 RMK AO2
cycle: 23

Station Type Date Time Source
KCCB TAF UTC NOAA

Error!


Example: see airport list